sensor_id;sensor_type;location;lat;lon;timestamp;P1;durP1;ratioP1;P2;durP2;ratioP2
6693;SDS011;3384;42.628;23.380;2023-01-30T00:01:06;4.53;;;3.97;;
6693;SDS011;3384;42.628;23.380;2023-01-30T00:07:06;6.20;;;4.83;;
6693;SDS011;3384;42.628;23.380;2023-01-30T00:09:34;13.70;;;4.93;;
6693;SDS011;3384;42.628;23.380;2023-01-30T00:12:01;10.80;;;7.73;;
6693;SDS011;3384;42.628;23.380;2023-01-30T00:14:27;6.13;;;5.53;;
6693;SDS011;3384;42.628;23.380;2023-01-30T00:16:54;6.17;;;5.73;;
6693;SDS011;3384;42.628;23.380;2023-01-30T00:19:21;8.60;;;6.63;;
6693;SDS011;3384;42.628;23.380;2023-01-30T00:21:48;7.90;;;7.07;;
6693;SDS011;3384;42.628;23.380;2023-01-30T00:24:15;4.83;;;4.17;;
6693;SDS011;3384;42.628;23.380;2023-01-30T00:26:43;5.37;;;4.87;;
6693;SDS011;3384;42.628;23.380;2023-01-30T00:29:10;7.50;;;6.80;;
6693;SDS011;3384;42.628;23.380;2023-01-30T00:31:37;10.97;;;8.53;;
6693;SDS011;3384;42.628;23.380;2023-01-30T00:34:06;8.33;;;5.30;;
6693;SDS011;3384;42.628;23.380;2023-01-30T00:43:00;4.23;;;3.97;;
6693;SDS011;3384;42.628;23.380;2023-01-30T00:45:47;9.50;;;6.90;;
6693;SDS011;3384;42.628;23.380;2023-01-30T00:51:54;5.93;;;5.33;;
6693;SDS011;3384;42.628;23.380;2023-01-30T00:54:24;9.03;;;5.77;;
6693;SDS011;3384;42.628;23.380;2023-01-30T00:56:51;9.07;;;7.13;;
6693;SDS011;3384;42.628;23.380;2023-01-30T00:59:19;8.63;;;6.00;;
6693;SDS011;3384;42.628;23.380;2023-01-30T01:05:28;2.90;;;2.63;;
6693;SDS011;3384;42.628;23.380;2023-01-30T01:17:31;4.60;;;4.13;;
6693;SDS011;3384;42.628;23.380;2023-01-30T01:23:20;6.00;;;5.40;;
6693;SDS011;3384;42.628;23.380;2023-01-30T01:25:46;9.60;;;7.67;;
6693;SDS011;3384;42.628;23.380;2023-01-30T01:28:13;11.23;;;8.33;;
6693;SDS011;3384;42.628;23.380;2023-01-30T01:30:45;8.20;;;6.53;;
6693;SDS011;3384;42.628;23.380;2023-01-30T01:33:13;8.03;;;6.53;;
6693;SDS011;3384;42.628;23.380;2023-01-30T01:35:54;8.10;;;6.63;;
6693;SDS011;3384;42.628;23.380;2023-01-30T01:38:21;2.60;;;2.40;;
6693;SDS011;3384;42.628;23.380;2023-01-30T01:40:47;13.83;;;6.70;;
6693;SDS011;3384;42.628;23.380;2023-01-30T01:43:35;9.37;;;8.30;;
6693;SDS011;3384;42.628;23.380;2023-01-30T01:46:05;11.13;;;6.57;;
6693;SDS011;3384;42.628;23.380;2023-01-30T01:48:37;11.83;;;6.90;;
6693;SDS011;3384;42.628;23.380;2023-01-30T01:51:08;5.57;;;4.50;;
6693;SDS011;3384;42.628;23.380;2023-01-30T01:53:39;6.43;;;5.70;;
6693;SDS011;3384;42.628;23.380;2023-01-30T01:56:12;5.43;;;3.77;;
6693;SDS011;3384;42.628;23.380;2023-01-30T01:58:42;13.13;;;7.23;;
6693;SDS011;3384;42.628;23.380;2023-01-30T02:01:13;9.13;;;6.07;;
6693;SDS011;3384;42.628;23.380;2023-01-30T02:03:46;5.90;;;5.30;;
6693;SDS011;3384;42.628;23.380;2023-01-30T02:06:15;5.07;;;4.57;;
6693;SDS011;3384;42.628;23.380;2023-01-30T02:08:43;6.03;;;5.43;;
6693;SDS011;3384;42.628;23.380;2023-01-30T02:11:20;2.57;;;2.47;;
6693;SDS011;3384;42.628;23.380;2023-01-30T02:14:12;7.50;;;6.00;;
6693;SDS011;3384;42.628;23.380;2023-01-30T02:20:13;5.67;;;4.90;;
6693;SDS011;3384;42.628;23.380;2023-01-30T02:39:46;11.30;;;5.27;;
6693;SDS011;3384;42.628;23.380;2023-01-30T02:42:28;7.17;;;6.23;;
6693;SDS011;3384;42.628;23.380;2023-01-30T02:51:47;6.70;;;5.00;;
6693;SDS011;3384;42.628;23.380;2023-01-30T02:54:16;8.67;;;6.33;;
6693;SDS011;3384;42.628;23.380;2023-01-30T03:00:12;10.13;;;6.67;;
6693;SDS011;3384;42.628;23.380;2023-01-30T03:06:23;7.50;;;4.60;;
6693;SDS011;3384;42.628;23.380;2023-01-30T03:09:10;4.87;;;3.87;;
6693;SDS011;3384;42.628;23.380;2023-01-30T03:11:45;6.20;;;5.70;;
6693;SDS011;3384;42.628;23.380;2023-01-30T03:14:17;7.27;;;6.67;;
6693;SDS011;3384;42.628;23.380;2023-01-30T03:16:51;6.73;;;5.97;;
6693;SDS011;3384;42.628;23.380;2023-01-30T03:19:21;9.53;;;6.50;;
6693;SDS011;3384;42.628;23.380;2023-01-30T03:21:48;10.23;;;5.47;;
6693;SDS011;3384;42.628;23.380;2023-01-30T03:24:15;3.67;;;3.57;;
6693;SDS011;3384;42.628;23.380;2023-01-30T03:26:43;5.77;;;5.07;;
6693;SDS011;3384;42.628;23.380;2023-01-30T03:29:14;8.30;;;5.73;;
6693;SDS011;3384;42.628;23.380;2023-01-30T03:31:41;5.93;;;5.53;;
6693;SDS011;3384;42.628;23.380;2023-01-30T03:34:09;5.30;;;4.80;;
6693;SDS011;3384;42.628;23.380;2023-01-30T03:36:36;5.63;;;5.23;;
6693;SDS011;3384;42.628;23.380;2023-01-30T03:39:03;9.67;;;5.90;;
6693;SDS011;3384;42.628;23.380;2023-01-30T03:41:30;5.50;;;5.00;;
6693;SDS011;3384;42.628;23.380;2023-01-30T03:43:57;5.27;;;4.90;;
6693;SDS011;3384;42.628;23.380;2023-01-30T03:46:23;3.07;;;2.97;;
6693;SDS011;3384;42.628;23.380;2023-01-30T03:48:50;5.83;;;5.27;;
6693;SDS011;3384;42.628;23.380;2023-01-30T03:51:18;2.53;;;2.43;;
6693;SDS011;3384;42.628;23.380;2023-01-30T03:53:45;6.20;;;5.50;;
6693;SDS011;3384;42.628;23.380;2023-01-30T03:56:12;7.37;;;6.60;;
6693;SDS011;3384;42.628;23.380;2023-01-30T03:58:54;10.17;;;5.47;;
6693;SDS011;3384;42.628;23.380;2023-01-30T04:04:47;4.80;;;4.50;;
6693;SDS011;3384;42.628;23.380;2023-01-30T04:10:37;6.53;;;4.70;;
6693;SDS011;3384;42.628;23.380;2023-01-30T04:16:44;3.40;;;3.20;;
6693;SDS011;3384;42.628;23.380;2023-01-30T04:22:53;3.47;;;2.80;;
6693;SDS011;3384;42.628;23.380;2023-01-30T04:25:20;7.07;;;5.40;;
6693;SDS011;3384;42.628;23.380;2023-01-30T04:27:48;5.27;;;4.90;;
6693;SDS011;3384;42.628;23.380;2023-01-30T04:30:15;7.90;;;5.50;;
6693;SDS011;3384;42.628;23.380;2023-01-30T04:32:43;7.13;;;6.50;;
6693;SDS011;3384;42.628;23.380;2023-01-30T04:35:10;6.47;;;4.40;;
6693;SDS011;3384;42.628;23.380;2023-01-30T04:37:37;7.93;;;5.40;;
6693;SDS011;3384;42.628;23.380;2023-01-30T04:40:04;10.23;;;6.00;;
6693;SDS011;3384;42.628;23.380;2023-01-30T04:42:31;6.50;;;5.00;;
6693;SDS011;3384;42.628;23.380;2023-01-30T04:44:59;7.00;;;6.37;;
6693;SDS011;3384;42.628;23.380;2023-01-30T04:47:26;7.93;;;6.33;;
6693;SDS011;3384;42.628;23.380;2023-01-30T04:49:53;6.67;;;6.07;;
6693;SDS011;3384;42.628;23.380;2023-01-30T04:52:20;6.27;;;5.33;;
6693;SDS011;3384;42.628;23.380;2023-01-30T04:54:46;3.93;;;2.97;;
6693;SDS011;3384;42.628;23.380;2023-01-30T04:57:13;9.37;;;6.60;;
6693;SDS011;3384;42.628;23.380;2023-01-30T04:59:40;4.70;;;4.30;;
6693;SDS011;3384;42.628;23.380;2023-01-30T05:02:08;3.57;;;3.37;;
6693;SDS011;3384;42.628;23.380;2023-01-30T05:04:35;16.53;;;7.70;;
6693;SDS011;3384;42.628;23.380;2023-01-30T05:07:02;7.47;;;5.40;;
6693;SDS011;3384;42.628;23.380;2023-01-30T05:12:19;8.40;;;6.03;;
6693;SDS011;3384;42.628;23.380;2023-01-30T05:14:46;9.80;;;8.87;;
6693;SDS011;3384;42.628;23.380;2023-01-30T05:17:14;13.10;;;7.43;;
6693;SDS011;3384;42.628;23.380;2023-01-30T05:19:41;7.70;;;4.13;;
6693;SDS011;3384;42.628;23.380;2023-01-30T05:22:07;5.73;;;5.03;;
6693;SDS011;3384;42.628;23.380;2023-01-30T05:24:34;9.27;;;7.10;;
6693;SDS011;3384;42.628;23.380;2023-01-30T05:27:01;11.50;;;8.17;;
6693;SDS011;3384;42.628;23.380;2023-01-30T05:29:28;12.10;;;6.00;;
6693;SDS011;3384;42.628;23.380;2023-01-30T05:31:55;5.80;;;4.80;;
6693;SDS011;3384;42.628;23.380;2023-01-30T05:37:33;5.47;;;5.00;;
6693;SDS011;3384;42.628;23.380;2023-01-30T05:40:02;12.43;;;7.80;;
6693;SDS011;3384;42.628;23.380;2023-01-30T05:42:29;6.13;;;4.50;;
6693;SDS011;3384;42.628;23.380;2023-01-30T05:44:55;14.40;;;8.50;;
6693;SDS011;3384;42.628;23.380;2023-01-30T05:47:22;12.30;;;8.27;;
6693;SDS011;3384;42.628;23.380;2023-01-30T05:49:57;12.43;;;8.00;;
6693;SDS011;3384;42.628;23.380;2023-01-30T05:52:23;14.33;;;6.63;;
6693;SDS011;3384;42.628;23.380;2023-01-30T05:54:52;8.43;;;5.37;;
6693;SDS011;3384;42.628;23.380;2023-01-30T05:57:29;9.10;;;6.77;;
6693;SDS011;3384;42.628;23.380;2023-01-30T05:59:56;10.00;;;8.80;;
6693;SDS011;3384;42.628;23.380;2023-01-30T06:02:22;10.43;;;6.10;;
6693;SDS011;3384;42.628;23.380;2023-01-30T06:04:49;12.43;;;8.87;;
6693;SDS011;3384;42.628;23.380;2023-01-30T06:07:16;11.60;;;8.40;;
6693;SDS011;3384;42.628;23.380;2023-01-30T06:09:43;8.80;;;7.37;;
6693;SDS011;3384;42.628;23.380;2023-01-30T06:12:11;9.50;;;5.10;;
6693;SDS011;3384;42.628;23.380;2023-01-30T06:14:38;10.77;;;6.80;;
6693;SDS011;3384;42.628;23.380;2023-01-30T06:17:05;14.47;;;9.10;;
6693;SDS011;3384;42.628;23.380;2023-01-30T06:19:31;21.30;;;7.10;;
6693;SDS011;3384;42.628;23.380;2023-01-30T06:21:58;8.40;;;6.53;;
6693;SDS011;3384;42.628;23.380;2023-01-30T06:24:25;19.87;;;10.37;;
6693;SDS011;3384;42.628;23.380;2023-01-30T06:26:52;12.30;;;9.20;;
6693;SDS011;3384;42.628;23.380;2023-01-30T06:29:20;17.43;;;9.53;;
6693;SDS011;3384;42.628;23.380;2023-01-30T06:31:46;17.63;;;9.37;;
6693;SDS011;3384;42.628;23.380;2023-01-30T06:34:13;19.07;;;8.23;;
6693;SDS011;3384;42.628;23.380;2023-01-30T06:36:40;14.80;;;10.37;;
6693;SDS011;3384;42.628;23.380;2023-01-30T06:39:08;16.10;;;10.07;;
6693;SDS011;3384;42.628;23.380;2023-01-30T06:41:35;14.17;;;8.57;;
6693;SDS011;3384;42.628;23.380;2023-01-30T06:44:01;13.20;;;6.80;;
6693;SDS011;3384;42.628;23.380;2023-01-30T06:46:29;11.93;;;5.53;;
6693;SDS011;3384;42.628;23.380;2023-01-30T06:48:56;6.10;;;5.43;;
6693;SDS011;3384;42.628;23.380;2023-01-30T06:51:23;9.83;;;6.97;;
6693;SDS011;3384;42.628;23.380;2023-01-30T06:53:51;17.40;;;9.07;;
6693;SDS011;3384;42.628;23.380;2023-01-30T06:56:18;18.77;;;11.10;;
6693;SDS011;3384;42.628;23.380;2023-01-30T06:58:45;14.60;;;9.60;;
6693;SDS011;3384;42.628;23.380;2023-01-30T07:01:12;10.57;;;8.40;;
6693;SDS011;3384;42.628;23.380;2023-01-30T07:03:40;9.70;;;7.77;;
6693;SDS011;3384;42.628;23.380;2023-01-30T07:06:07;17.63;;;10.07;;
6693;SDS011;3384;42.628;23.380;2023-01-30T07:08:34;23.43;;;10.00;;
6693;SDS011;3384;42.628;23.380;2023-01-30T07:11:00;23.67;;;13.70;;
6693;SDS011;3384;42.628;23.380;2023-01-30T07:13:30;15.27;;;9.27;;
6693;SDS011;3384;42.628;23.380;2023-01-30T07:15:56;14.23;;;9.13;;
6693;SDS011;3384;42.628;23.380;2023-01-30T07:18:23;17.00;;;10.77;;
6693;SDS011;3384;42.628;23.380;2023-01-30T07:20:52;15.83;;;10.00;;
6693;SDS011;3384;42.628;23.380;2023-01-30T07:23:18;18.83;;;11.13;;
6693;SDS011;3384;42.628;23.380;2023-01-30T07:25:45;5.67;;;5.00;;
6693;SDS011;3384;42.628;23.380;2023-01-30T07:28:12;24.50;;;10.60;;
6693;SDS011;3384;42.628;23.380;2023-01-30T07:30:39;22.10;;;9.77;;
6693;SDS011;3384;42.628;23.380;2023-01-30T07:33:05;11.77;;;7.40;;
6693;SDS011;3384;42.628;23.380;2023-01-30T07:35:33;16.80;;;9.83;;
6693;SDS011;3384;42.628;23.380;2023-01-30T07:38:03;13.70;;;10.23;;
6693;SDS011;3384;42.628;23.380;2023-01-30T07:40:30;12.97;;;7.03;;
6693;SDS011;3384;42.628;23.380;2023-01-30T07:42:58;17.37;;;9.90;;
6693;SDS011;3384;42.628;23.380;2023-01-30T07:45:26;14.87;;;8.90;;
6693;SDS011;3384;42.628;23.380;2023-01-30T07:47:56;10.10;;;7.67;;
6693;SDS011;3384;42.628;23.380;2023-01-30T07:50:23;9.07;;;7.80;;
6693;SDS011;3384;42.628;23.380;2023-01-30T07:52:49;13.60;;;10.50;;
6693;SDS011;3384;42.628;23.380;2023-01-30T07:55:18;13.80;;;9.60;;
6693;SDS011;3384;42.628;23.380;2023-01-30T07:57:45;15.10;;;9.50;;
6693;SDS011;3384;42.628;23.380;2023-01-30T08:00:12;11.10;;;7.77;;
6693;SDS011;3384;42.628;23.380;2023-01-30T08:02:40;11.70;;;8.33;;
6693;SDS011;3384;42.628;23.380;2023-01-30T08:05:07;12.80;;;8.40;;
6693;SDS011;3384;42.628;23.380;2023-01-30T08:07:34;20.00;;;8.90;;
6693;SDS011;3384;42.628;23.380;2023-01-30T08:10:01;18.20;;;10.03;;
6693;SDS011;3384;42.628;23.380;2023-01-30T08:12:30;18.20;;;10.77;;
6693;SDS011;3384;42.628;23.380;2023-01-30T08:14:56;15.93;;;9.93;;
6693;SDS011;3384;42.628;23.380;2023-01-30T08:17:23;13.83;;;8.43;;
6693;SDS011;3384;42.628;23.380;2023-01-30T08:19:50;11.03;;;8.67;;
6693;SDS011;3384;42.628;23.380;2023-01-30T08:22:17;9.20;;;6.13;;
6693;SDS011;3384;42.628;23.380;2023-01-30T08:24:44;13.80;;;7.80;;
6693;SDS011;3384;42.628;23.380;2023-01-30T08:27:10;9.77;;;6.73;;
6693;SDS011;3384;42.628;23.380;2023-01-30T08:29:39;7.50;;;6.83;;
6693;SDS011;3384;42.628;23.380;2023-01-30T08:32:05;13.00;;;8.63;;
6693;SDS011;3384;42.628;23.380;2023-01-30T08:34:32;9.70;;;7.07;;
6693;SDS011;3384;42.628;23.380;2023-01-30T08:37:00;11.57;;;8.37;;
6693;SDS011;3384;42.628;23.380;2023-01-30T08:39:27;13.20;;;9.00;;
6693;SDS011;3384;42.628;23.380;2023-01-30T08:41:54;17.10;;;10.10;;
6693;SDS011;3384;42.628;23.380;2023-01-30T08:44:21;12.87;;;9.47;;
6693;SDS011;3384;42.628;23.380;2023-01-30T08:46:49;12.80;;;7.47;;
6693;SDS011;3384;42.628;23.380;2023-01-30T08:49:16;12.43;;;7.30;;
6693;SDS011;3384;42.628;23.380;2023-01-30T08:51:43;16.63;;;9.17;;
6693;SDS011;3384;42.628;23.380;2023-01-30T08:54:10;13.70;;;7.60;;
6693;SDS011;3384;42.628;23.380;2023-01-30T08:56:37;11.87;;;8.40;;
6693;SDS011;3384;42.628;23.380;2023-01-30T08:59:05;13.43;;;8.83;;
6693;SDS011;3384;42.628;23.380;2023-01-30T09:01:32;13.90;;;8.67;;
6693;SDS011;3384;42.628;23.380;2023-01-30T09:04:00;13.30;;;8.80;;
6693;SDS011;3384;42.628;23.380;2023-01-30T09:06:26;12.80;;;9.00;;
6693;SDS011;3384;42.628;23.380;2023-01-30T09:08:53;16.20;;;7.73;;
6693;SDS011;3384;42.628;23.380;2023-01-30T09:11:20;14.00;;;7.70;;
6693;SDS011;3384;42.628;23.380;2023-01-30T09:13:47;9.07;;;7.70;;
6693;SDS011;3384;42.628;23.380;2023-01-30T09:16:14;8.23;;;7.40;;
6693;SDS011;3384;42.628;23.380;2023-01-30T09:18:41;9.57;;;6.50;;
6693;SDS011;3384;42.628;23.380;2023-01-30T09:21:12;6.73;;;5.40;;
6693;SDS011;3384;42.628;23.380;2023-01-30T09:23:39;7.73;;;5.17;;
6693;SDS011;3384;42.628;23.380;2023-01-30T09:26:12;3.63;;;3.43;;
6693;SDS011;3384;42.628;23.380;2023-01-30T09:28:39;6.53;;;5.70;;
6693;SDS011;3384;42.628;23.380;2023-01-30T09:31:05;5.73;;;4.93;;
6693;SDS011;3384;42.628;23.380;2023-01-30T09:33:32;7.17;;;6.43;;
6693;SDS011;3384;42.628;23.380;2023-01-30T09:35:59;7.67;;;6.57;;
6693;SDS011;3384;42.628;23.380;2023-01-30T09:38:27;6.60;;;3.00;;
6693;SDS011;3384;42.628;23.380;2023-01-30T09:40:58;11.30;;;7.07;;
6693;SDS011;3384;42.628;23.380;2023-01-30T09:43:53;8.80;;;5.20;;
6693;SDS011;3384;42.628;23.380;2023-01-30T09:46:33;5.30;;;4.83;;
6693;SDS011;3384;42.628;23.380;2023-01-30T09:49:10;7.67;;;5.00;;
6693;SDS011;3384;42.628;23.380;2023-01-30T09:51:49;13.47;;;6.17;;
6693;SDS011;3384;42.628;23.380;2023-01-30T09:54:25;8.17;;;5.57;;
6693;SDS011;3384;42.628;23.380;2023-01-30T09:56:57;4.53;;;4.23;;
6693;SDS011;3384;42.628;23.380;2023-01-30T09:59:36;5.60;;;5.10;;
6693;SDS011;3384;42.628;23.380;2023-01-30T10:02:17;5.60;;;4.20;;
6693;SDS011;3384;42.628;23.380;2023-01-30T10:04:54;8.20;;;6.90;;
6693;SDS011;3384;42.628;23.380;2023-01-30T10:07:23;9.90;;;7.17;;
6693;SDS011;3384;42.628;23.380;2023-01-30T10:09:58;8.90;;;6.90;;
6693;SDS011;3384;42.628;23.380;2023-01-30T10:12:37;11.53;;;6.87;;
6693;SDS011;3384;42.628;23.380;2023-01-30T10:21:03;5.33;;;4.90;;
6693;SDS011;3384;42.628;23.380;2023-01-30T10:23:53;6.70;;;4.40;;
6693;SDS011;3384;42.628;23.380;2023-01-30T10:26:29;9.90;;;8.17;;
6693;SDS011;3384;42.628;23.380;2023-01-30T10:28:57;11.10;;;7.60;;
6693;SDS011;3384;42.628;23.380;2023-01-30T10:31:27;6.03;;;5.40;;
6693;SDS011;3384;42.628;23.380;2023-01-30T10:33:58;7.37;;;6.57;;
6693;SDS011;3384;42.628;23.380;2023-01-30T10:36:31;7.80;;;4.00;;
6693;SDS011;3384;42.628;23.380;2023-01-30T10:39:16;8.43;;;6.40;;
6693;SDS011;3384;42.628;23.380;2023-01-30T10:41:51;8.13;;;5.97;;
6693;SDS011;3384;42.628;23.380;2023-01-30T10:44:22;4.50;;;4.13;;
6693;SDS011;3384;42.628;23.380;2023-01-30T10:46:53;10.23;;;6.03;;
6693;SDS011;3384;42.628;23.380;2023-01-30T10:49:35;16.47;;;9.20;;
6693;SDS011;3384;42.628;23.380;2023-01-30T10:52:09;10.10;;;8.97;;
6693;SDS011;3384;42.628;23.380;2023-01-30T10:54:54;16.67;;;8.33;;
6693;SDS011;3384;42.628;23.380;2023-01-30T10:57:37;11.93;;;5.93;;
6693;SDS011;3384;42.628;23.380;2023-01-30T11:00:14;17.10;;;8.10;;
6693;SDS011;3384;42.628;23.380;2023-01-30T11:02:49;4.87;;;4.27;;
6693;SDS011;3384;42.628;23.380;2023-01-30T11:05:24;3.13;;;2.77;;
6693;SDS011;3384;42.628;23.380;2023-01-30T11:07:55;6.13;;;4.23;;
6693;SDS011;3384;42.628;23.380;2023-01-30T11:10:22;8.37;;;7.17;;
6693;SDS011;3384;42.628;23.380;2023-01-30T11:12:52;14.10;;;9.50;;
6693;SDS011;3384;42.628;23.380;2023-01-30T11:15:24;8.00;;;6.97;;
6693;SDS011;3384;42.628;23.380;2023-01-30T11:18:10;11.77;;;6.70;;
6693;SDS011;3384;42.628;23.380;2023-01-30T11:20:39;15.10;;;7.80;;
6693;SDS011;3384;42.628;23.380;2023-01-30T11:23:10;10.63;;;6.17;;
6693;SDS011;3384;42.628;23.380;2023-01-30T11:25:50;12.87;;;7.30;;
6693;SDS011;3384;42.628;23.380;2023-01-30T11:28:21;9.47;;;7.63;;
6693;SDS011;3384;42.628;23.380;2023-01-30T11:30:51;6.60;;;4.90;;
6693;SDS011;3384;42.628;23.380;2023-01-30T11:33:22;15.03;;;7.57;;
6693;SDS011;3384;42.628;23.380;2023-01-30T11:35:56;14.73;;;8.00;;
6693;SDS011;3384;42.628;23.380;2023-01-30T11:38:26;8.60;;;5.30;;
6693;SDS011;3384;42.628;23.380;2023-01-30T11:41:01;9.07;;;6.53;;
6693;SDS011;3384;42.628;23.380;2023-01-30T11:43:33;11.37;;;7.13;;
6693;SDS011;3384;42.628;23.380;2023-01-30T11:46:01;12.00;;;7.57;;
6693;SDS011;3384;42.628;23.380;2023-01-30T11:48:30;13.07;;;9.60;;
6693;SDS011;3384;42.628;23.380;2023-01-30T11:51:01;19.53;;;8.43;;
6693;SDS011;3384;42.628;23.380;2023-01-30T11:53:32;12.90;;;5.60;;
6693;SDS011;3384;42.628;23.380;2023-01-30T11:56:03;12.77;;;7.23;;
6693;SDS011;3384;42.628;23.380;2023-01-30T11:58:37;12.67;;;6.53;;
6693;SDS011;3384;42.628;23.380;2023-01-30T12:01:06;11.13;;;7.70;;
6693;SDS011;3384;42.628;23.380;2023-01-30T12:03:35;6.30;;;5.70;;
6693;SDS011;3384;42.628;23.380;2023-01-30T12:06:09;11.37;;;6.40;;
6693;SDS011;3384;42.628;23.380;2023-01-30T12:08:37;10.67;;;5.60;;
6693;SDS011;3384;42.628;23.380;2023-01-30T12:11:22;6.97;;;6.00;;
6693;SDS011;3384;42.628;23.380;2023-01-30T12:13:53;14.27;;;9.23;;
6693;SDS011;3384;42.628;23.380;2023-01-30T12:16:22;8.80;;;6.80;;
6693;SDS011;3384;42.628;23.380;2023-01-30T12:18:59;13.80;;;8.07;;
6693;SDS011;3384;42.628;23.380;2023-01-30T12:21:33;12.53;;;8.40;;
6693;SDS011;3384;42.628;23.380;2023-01-30T12:24:07;6.67;;;6.07;;
6693;SDS011;3384;42.628;23.380;2023-01-30T12:26:43;10.17;;;7.87;;
6693;SDS011;3384;42.628;23.380;2023-01-30T12:29:19;12.37;;;8.00;;
6693;SDS011;3384;42.628;23.380;2023-01-30T12:31:51;8.27;;;6.60;;
6693;SDS011;3384;42.628;23.380;2023-01-30T12:34:58;14.87;;;9.73;;
6693;SDS011;3384;42.628;23.380;2023-01-30T12:37:35;11.00;;;7.47;;
6693;SDS011;3384;42.628;23.380;2023-01-30T12:40:14;17.10;;;8.83;;
6693;SDS011;3384;42.628;23.380;2023-01-30T12:45:58;15.10;;;8.33;;
6693;SDS011;3384;42.628;23.380;2023-01-30T12:51:36;14.00;;;8.47;;
6693;SDS011;3384;42.628;23.380;2023-01-30T12:54:16;30.27;;;5.33;;
6693;SDS011;3384;42.628;23.380;2023-01-30T12:56:59;10.00;;;6.40;;
6693;SDS011;3384;42.628;23.380;2023-01-30T12:59:37;5.37;;;5.07;;
6693;SDS011;3384;42.628;23.380;2023-01-30T13:02:29;10.73;;;7.13;;
6693;SDS011;3384;42.628;23.380;2023-01-30T13:05:21;2.90;;;2.70;;
6693;SDS011;3384;42.628;23.380;2023-01-30T13:08:04;4.37;;;4.03;;
6693;SDS011;3384;42.628;23.380;2023-01-30T13:10:41;3.57;;;3.27;;
6693;SDS011;3384;42.628;23.380;2023-01-30T13:13:17;9.43;;;5.80;;
6693;SDS011;3384;42.628;23.380;2023-01-30T13:15:51;6.37;;;5.17;;
6693;SDS011;3384;42.628;23.380;2023-01-30T13:18:24;8.17;;;6.40;;
6693;SDS011;3384;42.628;23.380;2023-01-30T13:21:30;8.20;;;7.50;;
6693;SDS011;3384;42.628;23.380;2023-01-30T13:24:04;6.13;;;5.63;;
6693;SDS011;3384;42.628;23.380;2023-01-30T13:33:08;14.33;;;7.77;;
6693;SDS011;3384;42.628;23.380;2023-01-30T13:39:17;13.50;;;7.37;;
6693;SDS011;3384;42.628;23.380;2023-01-30T13:45:46;7.87;;;7.10;;
6693;SDS011;3384;42.628;23.380;2023-01-30T13:48:18;9.60;;;6.07;;
6693;SDS011;3384;42.628;23.380;2023-01-30T13:51:00;5.30;;;4.90;;
6693;SDS011;3384;42.628;23.380;2023-01-30T13:53:38;5.20;;;4.70;;
6693;SDS011;3384;42.628;23.380;2023-01-30T13:56:14;12.57;;;5.70;;
6693;SDS011;3384;42.628;23.380;2023-01-30T13:58:52;16.83;;;7.77;;
6693;SDS011;3384;42.628;23.380;2023-01-30T14:01:24;5.73;;;5.10;;
6693;SDS011;3384;42.628;23.380;2023-01-30T14:04:44;5.47;;;5.03;;
6693;SDS011;3384;42.628;23.380;2023-01-30T14:07:14;9.77;;;7.03;;
6693;SDS011;3384;42.628;23.380;2023-01-30T14:09:44;24.43;;;9.50;;
6693;SDS011;3384;42.628;23.380;2023-01-30T14:12:17;16.57;;;9.33;;
6693;SDS011;3384;42.628;23.380;2023-01-30T14:14:58;14.20;;;10.10;;
6693;SDS011;3384;42.628;23.380;2023-01-30T14:17:28;9.50;;;8.60;;
6693;SDS011;3384;42.628;23.380;2023-01-30T14:19:56;14.07;;;9.20;;
6693;SDS011;3384;42.628;23.380;2023-01-30T14:22:31;13.97;;;9.90;;
6693;SDS011;3384;42.628;23.380;2023-01-30T14:34:43;14.80;;;9.33;;
6693;SDS011;3384;42.628;23.380;2023-01-30T14:40:35;19.33;;;10.33;;
6693;SDS011;3384;42.628;23.380;2023-01-30T14:49:30;14.40;;;8.70;;
6693;SDS011;3384;42.628;23.380;2023-01-30T14:52:16;17.83;;;9.27;;
6693;SDS011;3384;42.628;23.380;2023-01-30T14:54:56;20.40;;;9.10;;
6693;SDS011;3384;42.628;23.380;2023-01-30T14:57:23;53.87;;;11.03;;
6693;SDS011;3384;42.628;23.380;2023-01-30T14:59:57;17.03;;;9.50;;
6693;SDS011;3384;42.628;23.380;2023-01-30T15:02:28;8.13;;;6.30;;
6693;SDS011;3384;42.628;23.380;2023-01-30T15:05:02;18.13;;;11.20;;
6693;SDS011;3384;42.628;23.380;2023-01-30T15:07:35;17.73;;;9.97;;
6693;SDS011;3384;42.628;23.380;2023-01-30T15:10:05;15.97;;;9.83;;
6693;SDS011;3384;42.628;23.380;2023-01-30T15:15:52;18.47;;;10.83;;
6693;SDS011;3384;42.628;23.380;2023-01-30T15:18:39;12.70;;;10.30;;
6693;SDS011;3384;42.628;23.380;2023-01-30T15:21:38;16.23;;;9.00;;
6693;SDS011;3384;42.628;23.380;2023-01-30T15:24:23;15.27;;;11.00;;
6693;SDS011;3384;42.628;23.380;2023-01-30T15:27:10;16.40;;;10.63;;
6693;SDS011;3384;42.628;23.380;2023-01-30T15:29:52;25.97;;;11.77;;
6693;SDS011;3384;42.628;23.380;2023-01-30T15:32:26;17.13;;;10.10;;
6693;SDS011;3384;42.628;23.380;2023-01-30T15:38:21;18.87;;;9.80;;
6693;SDS011;3384;42.628;23.380;2023-01-30T15:44:41;9.93;;;8.13;;
6693;SDS011;3384;42.628;23.380;2023-01-30T16:12:30;10.13;;;7.37;;
6693;SDS011;3384;42.628;23.380;2023-01-30T16:14:57;15.87;;;10.83;;
6693;SDS011;3384;42.628;23.380;2023-01-30T16:17:24;14.00;;;8.63;;
6693;SDS011;3384;42.628;23.380;2023-01-30T16:19:54;17.30;;;9.53;;
6693;SDS011;3384;42.628;23.380;2023-01-30T16:22:26;17.20;;;9.80;;
6693;SDS011;3384;42.628;23.380;2023-01-30T16:28:23;18.77;;;11.63;;
6693;SDS011;3384;42.628;23.380;2023-01-30T16:30:57;16.30;;;9.87;;
6693;SDS011;3384;42.628;23.380;2023-01-30T16:33:25;16.23;;;10.47;;
6693;SDS011;3384;42.628;23.380;2023-01-30T16:36:00;17.43;;;11.27;;
6693;SDS011;3384;42.628;23.380;2023-01-30T16:38:39;10.90;;;7.40;;
6693;SDS011;3384;42.628;23.380;2023-01-30T16:44:07;18.37;;;11.03;;
6693;SDS011;3384;42.628;23.380;2023-01-30T16:49:37;22.27;;;11.03;;
6693;SDS011;3384;42.628;23.380;2023-01-30T16:52:13;23.43;;;12.47;;
6693;SDS011;3384;42.628;23.380;2023-01-30T16:54:46;20.07;;;12.53;;
6693;SDS011;3384;42.628;23.380;2023-01-30T17:00:18;19.37;;;11.60;;
6693;SDS011;3384;42.628;23.380;2023-01-30T17:02:48;16.37;;;10.70;;
6693;SDS011;3384;42.628;23.380;2023-01-30T17:05:17;23.83;;;12.57;;
6693;SDS011;3384;42.628;23.380;2023-01-30T17:07:48;17.40;;;11.60;;
6693;SDS011;3384;42.628;23.380;2023-01-30T17:13:29;24.30;;;13.53;;
6693;SDS011;3384;42.628;23.380;2023-01-30T17:18:47;25.20;;;12.53;;
6693;SDS011;3384;42.628;23.380;2023-01-30T17:21:15;24.50;;;13.23;;
6693;SDS011;3384;42.628;23.380;2023-01-30T17:23:43;25.20;;;13.23;;
6693;SDS011;3384;42.628;23.380;2023-01-30T17:26:12;17.07;;;11.47;;
6693;SDS011;3384;42.628;23.380;2023-01-30T17:28:45;27.53;;;12.17;;
6693;SDS011;3384;42.628;23.380;2023-01-30T17:31:12;25.83;;;11.97;;
6693;SDS011;3384;42.628;23.380;2023-01-30T17:33:43;22.80;;;11.97;;
6693;SDS011;3384;42.628;23.380;2023-01-30T17:36:10;23.20;;;12.50;;
6693;SDS011;3384;42.628;23.380;2023-01-30T17:38:44;25.50;;;13.83;;
6693;SDS011;3384;42.628;23.380;2023-01-30T17:41:13;21.33;;;12.20;;
6693;SDS011;3384;42.628;23.380;2023-01-30T17:43:46;24.20;;;12.90;;
6693;SDS011;3384;42.628;23.380;2023-01-30T17:46:13;29.60;;;16.53;;
6693;SDS011;3384;42.628;23.380;2023-01-30T17:48:40;21.57;;;14.27;;
6693;SDS011;3384;42.628;23.380;2023-01-30T17:51:14;29.70;;;14.23;;
6693;SDS011;3384;42.628;23.380;2023-01-30T17:53:44;23.53;;;13.90;;
6693;SDS011;3384;42.628;23.380;2023-01-30T17:56:15;17.33;;;11.30;;
6693;SDS011;3384;42.628;23.380;2023-01-30T17:58:44;26.30;;;14.30;;
6693;SDS011;3384;42.628;23.380;2023-01-30T18:01:14;26.93;;;16.00;;
6693;SDS011;3384;42.628;23.380;2023-01-30T18:03:43;30.40;;;13.07;;
6693;SDS011;3384;42.628;23.380;2023-01-30T18:06:10;21.20;;;13.27;;
6693;SDS011;3384;42.628;23.380;2023-01-30T18:08:40;25.40;;;13.40;;
6693;SDS011;3384;42.628;23.380;2023-01-30T18:11:07;22.03;;;12.53;;
6693;SDS011;3384;42.628;23.380;2023-01-30T18:13:36;21.85;;;14.32;;
6693;SDS011;3384;42.628;23.380;2023-01-30T18:16:08;22.70;;;12.20;;
6693;SDS011;3384;42.628;23.380;2023-01-30T18:18:40;15.63;;;11.20;;